sensor_id;sensor_type;location;lat;lon;timestamp;pressure;altitude;pressure_sealevel;temperature;humidity
51849;BME280;38952;51.090;-1.832;2023-02-02T00:01:51;101507.91;;;5.69;100.00
51849;BME280;38952;51.090;-1.832;2023-02-02T00:04:21;101519.63;;;5.76;100.00
51849;BME280;38952;51.090;-1.832;2023-02-02T00:06:47;101516.50;;;5.72;100.00
51849;BME280;38952;51.090;-1.832;2023-02-02T00:09:18;101504.16;;;5.63;100.00
51849;BME280;38952;51.090;-1.832;2023-02-02T00:11:47;101502.47;;;5.62;100.00
51849;BME280;38952;51.090;-1.832;2023-02-02T00:14:14;101510.88;;;5.74;100.00
51849;BME280;38952;51.090;-1.832;2023-02-02T00:16:52;101517.94;;;5.88;100.00
51849;BME280;38952;51.090;-1.832;2023-02-02T00:19:24;101505.03;;;5.97;100.00
51849;BME280;38952;51.090;-1.832;2023-02-02T00:21:51;101502.13;;;6.05;100.00
51849;BME280;38952;51.090;-1.832;2023-02-02T00:24:17;101516.31;;;6.21;100.00
51849;BME280;38952;51.090;-1.832;2023-02-02T00:26:44;101510.88;;;6.27;100.00
51849;BME280;38952;51.090;-1.832;2023-02-02T00:29:19;101514.63;;;6.40;99.38
51849;BME280;38952;51.090;-1.832;2023-02-02T00:31:45;101511.25;;;6.51;99.66
51849;BME280;38952;51.090;-1.832;2023-02-02T00:34:16;101516.25;;;6.61;99.12
51849;BME280;38952;51.090;-1.832;2023-02-02T00:36:51;101513.97;;;6.64;98.64
51849;BME280;38952;51.090;-1.832;2023-02-02T00:39:23;101494.75;;;6.53;97.76
51849;BME280;38952;51.090;-1.832;2023-02-02T00:41:50;101511.19;;;6.71;97.73
51849;BME280;38952;51.090;-1.832;2023-02-02T00:44:15;101479.88;;;6.55;97.27
51849;BME280;38952;51.090;-1.832;2023-02-02T00:46:59;101515.38;;;6.80;97.59
51849;BME280;38952;51.090;-1.832;2023-02-02T00:49:25;101488.84;;;6.69;97.54
51849;BME280;38952;51.090;-1.832;2023-02-02T00:51:51;101492.78;;;6.80;97.44
51849;BME280;38952;51.090;-1.832;2023-02-02T00:54:16;101497.56;;;6.85;96.90
51849;BME280;38952;51.090;-1.832;2023-02-02T00:56:42;101480.03;;;6.80;97.30
51849;BME280;38952;51.090;-1.832;2023-02-02T00:59:10;101481.50;;;6.76;96.87
51849;BME280;38952;51.090;-1.832;2023-02-02T01:01:36;101490.69;;;6.75;97.21
51849;BME280;38952;51.090;-1.832;2023-02-02T01:04:09;101480.47;;;6.64;96.77
51849;BME280;38952;51.090;-1.832;2023-02-02T01:06:41;101486.56;;;6.66;97.30
51849;BME280;38952;51.090;-1.832;2023-02-02T01:09:07;101487.81;;;6.70;97.80
51849;BME280;38952;51.090;-1.832;2023-02-02T01:11:32;101488.22;;;6.67;97.80
51849;BME280;38952;51.090;-1.832;2023-02-02T01:13:58;101476.94;;;6.63;97.69
51849;BME280;38952;51.090;-1.832;2023-02-02T01:16:27;101500.31;;;6.71;97.06
51849;BME280;38952;51.090;-1.832;2023-02-02T01:18:52;101481.94;;;6.67;97.79
51849;BME280;38952;51.090;-1.832;2023-02-02T01:21:18;101494.88;;;6.78;97.55
51849;BME280;38952;51.090;-1.832;2023-02-02T01:23:46;101461.06;;;6.54;97.47
51849;BME280;38952;51.090;-1.832;2023-02-02T01:26:12;101478.84;;;6.50;97.81
51849;BME280;38952;51.090;-1.832;2023-02-02T01:28:38;101472.41;;;6.37;99.03
51849;BME280;38952;51.090;-1.832;2023-02-02T01:31:15;101471.59;;;6.23;99.66
51849;BME280;38952;51.090;-1.832;2023-02-02T01:33:42;101491.25;;;6.25;100.00
51849;BME280;38952;51.090;-1.832;2023-02-02T01:36:11;101478.69;;;6.31;100.00
51849;BME280;38952;51.090;-1.832;2023-02-02T01:38:36;101480.78;;;6.29;100.00
51849;BME280;38952;51.090;-1.832;2023-02-02T01:41:02;101482.88;;;6.20;100.00
51849;BME280;38952;51.090;-1.832;2023-02-02T01:51:26;101466.41;;;6.02;100.00
51849;BME280;38952;51.090;-1.832;2023-02-02T01:53:55;101487.28;;;6.01;100.00
51849;BME280;38952;51.090;-1.832;2023-02-02T01:56:27;101477.44;;;5.93;100.00
51849;BME280;38952;51.090;-1.832;2023-02-02T01:58:54;101461.81;;;5.75;100.00
51849;BME280;38952;51.090;-1.832;2023-02-02T02:01:21;101478.50;;;5.72;100.00
51849;BME280;38952;51.090;-1.832;2023-02-02T02:03:47;101482.03;;;5.66;100.00
51849;BME280;38952;51.090;-1.832;2023-02-02T02:06:15;101482.88;;;5.67;100.00
51849;BME280;38952;51.090;-1.832;2023-02-02T02:11:12;101475.75;;;5.59;100.00
51849;BME280;38952;51.090;-1.832;2023-02-02T02:13:38;101477.44;;;5.67;100.00
51849;BME280;38952;51.090;-1.832;2023-02-02T02:22:12;101472.00;;;6.27;100.00
51849;BME280;38952;51.090;-1.832;2023-02-02T02:31:26;101461.59;;;6.10;100.00
51849;BME280;38952;51.090;-1.832;2023-02-02T02:34:08;101461.81;;;6.02;100.00
51849;BME280;38952;51.090;-1.832;2023-02-02T02:36:55;101464.09;;;6.05;100.00
51849;BME280;38952;51.090;-1.832;2023-02-02T02:41:59;101451.56;;;6.18;100.00
51849;BME280;38952;51.090;-1.832;2023-02-02T02:44:30;101451.13;;;6.07;100.00
51849;BME280;38952;51.090;-1.832;2023-02-02T02:46:56;101457.00;;;6.04;100.00
51849;BME280;38952;51.090;-1.832;2023-02-02T02:49:22;101472.69;;;6.09;100.00
51849;BME280;38952;51.090;-1.832;2023-02-02T02:51:52;101466.59;;;6.14;100.00
51849;BME280;38952;51.090;-1.832;2023-02-02T02:54:24;101469.13;;;6.15;100.00
51849;BME280;38952;51.090;-1.832;2023-02-02T03:07:51;101472.06;;;6.00;100.00
51849;BME280;38952;51.090;-1.832;2023-02-02T03:10:23;101465.56;;;5.94;99.42
51849;BME280;38952;51.090;-1.832;2023-02-02T03:12:52;101455.53;;;5.82;99.97
51849;BME280;38952;51.090;-1.832;2023-02-02T03:15:18;101453.44;;;5.70;99.75
51849;BME280;38952;51.090;-1.832;2023-02-02T03:17:46;101478.69;;;5.64;100.00
51849;BME280;38952;51.090;-1.832;2023-02-02T03:20:14;101460.53;;;5.71;100.00
51849;BME280;38952;51.090;-1.832;2023-02-02T03:22:40;101477.88;;;5.97;99.98
51849;BME280;38952;51.090;-1.832;2023-02-02T03:25:06;101490.81;;;6.22;98.54
51849;BME280;38952;51.090;-1.832;2023-02-02T03:27:36;101493.31;;;6.37;98.09
51849;BME280;38952;51.090;-1.832;2023-02-02T03:30:03;101488.69;;;6.51;98.18
51849;BME280;38952;51.090;-1.832;2023-02-02T03:32:28;101498.25;;;6.60;97.72
51849;BME280;38952;51.090;-1.832;2023-02-02T03:34:54;101496.38;;;6.67;96.51
51849;BME280;38952;51.090;-1.832;2023-02-02T03:37:19;101499.91;;;6.74;96.48
51849;BME280;38952;51.090;-1.832;2023-02-02T03:39:44;101496.56;;;6.72;95.61
51849;BME280;38952;51.090;-1.832;2023-02-02T03:42:10;101493.63;;;6.74;95.80
51849;BME280;38952;51.090;-1.832;2023-02-02T03:44:35;101502.56;;;6.88;95.58
51849;BME280;38952;51.090;-1.832;2023-02-02T03:47:01;101500.69;;;6.88;94.68
51849;BME280;38952;51.090;-1.832;2023-02-02T03:49:26;101494.41;;;6.94;94.68
51849;BME280;38952;51.090;-1.832;2023-02-02T03:51:54;101486.88;;;6.90;94.46
51849;BME280;38952;51.090;-1.832;2023-02-02T03:54:22;101490.84;;;6.94;94.31
51849;BME280;38952;51.090;-1.832;2023-02-02T03:56:47;101500.63;;;7.02;93.40
51849;BME280;38952;51.090;-1.832;2023-02-02T03:59:15;101488.50;;;7.04;93.83
51849;BME280;38952;51.090;-1.832;2023-02-02T04:01:40;101507.31;;;7.06;93.21
51849;BME280;38952;51.090;-1.832;2023-02-02T04:04:06;101494.97;;;7.03;92.81
51849;BME280;38952;51.090;-1.832;2023-02-02T04:06:32;101496.03;;;7.02;92.90
51849;BME280;38952;51.090;-1.832;2023-02-02T04:08:57;101496.03;;;7.02;93.08
51849;BME280;38952;51.090;-1.832;2023-02-02T04:11:23;101506.28;;;7.07;92.82
51849;BME280;38952;51.090;-1.832;2023-02-02T04:13:56;101521.09;;;7.11;93.07
51849;BME280;38952;51.090;-1.832;2023-02-02T04:16:21;101497.31;;;6.93;93.53
51849;BME280;38952;51.090;-1.832;2023-02-02T04:18:47;101515.25;;;7.07;93.15
51849;BME280;38952;51.090;-1.832;2023-02-02T04:21:12;101518.16;;;7.12;93.48
51849;BME280;38952;51.090;-1.832;2023-02-02T04:23:38;101515.66;;;7.11;92.50
51849;BME280;38952;51.090;-1.832;2023-02-02T04:26:06;101510.66;;;7.08;91.85
51849;BME280;38952;51.090;-1.832;2023-02-02T04:28:34;101517.75;;;7.15;91.39
51849;BME280;38952;51.090;-1.832;2023-02-02T04:31:00;101505.84;;;7.10;91.48
51849;BME280;38952;51.090;-1.832;2023-02-02T04:33:26;101504.16;;;7.09;91.26
51849;BME280;38952;51.090;-1.832;2023-02-02T04:35:52;101491.81;;;7.06;91.89
51849;BME280;38952;51.090;-1.832;2023-02-02T04:38:20;101490.84;;;6.94;92.19
51849;BME280;38952;51.090;-1.832;2023-02-02T04:40:46;101499.22;;;6.92;92.74
51849;BME280;38952;51.090;-1.832;2023-02-02T04:43:12;101494.03;;;6.77;92.72
51849;BME280;38952;51.090;-1.832;2023-02-02T04:45:38;101498.91;;;6.62;93.16
51849;BME280;38952;51.090;-1.832;2023-02-02T04:48:04;101476.59;;;6.33;92.88
51849;BME280;38952;51.090;-1.832;2023-02-02T04:50:30;101477.88;;;6.24;93.34
51849;BME280;38952;51.090;-1.832;2023-02-02T04:52:56;101498.53;;;6.25;94.01
51849;BME280;38952;51.090;-1.832;2023-02-02T04:55:22;101486.41;;;5.94;94.71
51849;BME280;38952;51.090;-1.832;2023-02-02T04:57:47;101491.84;;;5.94;95.20
51849;BME280;38952;51.090;-1.832;2023-02-02T05:00:13;101493.09;;;5.85;95.35
51849;BME280;38952;51.090;-1.832;2023-02-02T05:02:39;101504.38;;;5.75;96.45
51849;BME280;38952;51.090;-1.832;2023-02-02T05:05:07;101484.31;;;5.56;96.63
51849;BME280;38952;51.090;-1.832;2023-02-02T05:07:33;101504.53;;;5.53;96.71
51849;BME280;38952;51.090;-1.832;2023-02-02T05:09:59;101487.84;;;5.43;97.90
51849;BME280;38952;51.090;-1.832;2023-02-02T05:12:25;101498.28;;;5.39;98.19
51849;BME280;38952;51.090;-1.832;2023-02-02T05:14:50;101505.16;;;5.35;98.75
51849;BME280;38952;51.090;-1.832;2023-02-02T05:17:16;101511.38;;;5.29;98.86
51849;BME280;38952;51.090;-1.832;2023-02-02T05:19:41;101516.19;;;5.27;98.96
51849;BME280;38952;51.090;-1.832;2023-02-02T05:22:07;101526.19;;;5.27;99.16
51849;BME280;38952;51.090;-1.832;2023-02-02T05:24:32;101517.63;;;5.23;100.00
51849;BME280;38952;51.090;-1.832;2023-02-02T05:26:58;101519.06;;;5.19;99.68
51849;BME280;38952;51.090;-1.832;2023-02-02T05:29:30;101515.50;;;5.12;99.96
51849;BME280;38952;51.090;-1.832;2023-02-02T05:31:56;101541.63;;;5.33;100.00
51849;BME280;38952;51.090;-1.832;2023-02-02T05:34:21;101528.97;;;5.47;100.00
51849;BME280;38952;51.090;-1.832;2023-02-02T05:36:47;101542.56;;;5.73;99.59
51849;BME280;38952;51.090;-1.832;2023-02-02T05:39:13;101534.66;;;5.92;99.49
51849;BME280;38952;51.090;-1.832;2023-02-02T05:41:38;101526.97;;;6.02;98.67
51849;BME280;38952;51.090;-1.832;2023-02-02T05:44:04;101529.69;;;6.16;98.16
51849;BME280;38952;51.090;-1.832;2023-02-02T05:46:29;101528.41;;;6.25;97.71
51849;BME280;38952;51.090;-1.832;2023-02-02T05:48:55;101527.59;;;6.31;96.71
51849;BME280;38952;51.090;-1.832;2023-02-02T05:51:31;101523.59;;;6.40;97.23
51849;BME280;38952;51.090;-1.832;2023-02-02T05:54:00;101522.97;;;6.45;96.40
51849;BME280;38952;51.090;-1.832;2023-02-02T05:56:26;101515.03;;;6.43;96.93
51849;BME280;38952;51.090;-1.832;2023-02-02T05:58:51;101517.09;;;6.55;96.67
51849;BME280;38952;51.090;-1.832;2023-02-02T06:01:17;101529.84;;;6.61;96.32
51849;BME280;38952;51.090;-1.832;2023-02-02T06:03:43;101522.13;;;6.58;96.54
51849;BME280;38952;51.090;-1.832;2023-02-02T06:06:09;101530.47;;;6.63;96.50
51849;BME280;38952;51.090;-1.832;2023-02-02T06:08:37;101510.63;;;6.56;96.96
51849;BME280;38952;51.090;-1.832;2023-02-02T06:11:14;101520.88;;;6.54;96.65
51849;BME280;38952;51.090;-1.832;2023-02-02T06:13:40;101514.59;;;6.46;97.38
51849;BME280;38952;51.090;-1.832;2023-02-02T06:16:06;101517.56;;;6.38;98.10
51849;BME280;38952;51.090;-1.832;2023-02-02T06:19:13;101513.78;;;6.39;98.55
51849;BME280;38952;51.090;-1.832;2023-02-02T06:28:29;101523.31;;;6.75;98.80
51849;BME280;38952;51.090;-1.832;2023-02-02T06:31:38;101495.75;;;6.65;98.41
51849;BME280;38952;51.090;-1.832;2023-02-02T06:34:16;101481.94;;;6.60;98.56
51849;BME280;38952;51.090;-1.832;2023-02-02T06:37:15;101507.63;;;6.77;98.67
51849;BME280;38952;51.090;-1.832;2023-02-02T06:47:43;101505.94;;;6.83;98.61
51849;BME280;38952;51.090;-1.832;2023-02-02T06:54:24;101524.06;;;7.03;98.08
51849;BME280;38952;51.090;-1.832;2023-02-02T07:00:29;101520.72;;;7.01;98.17
51849;BME280;38952;51.090;-1.832;2023-02-02T07:03:05;101555.84;;;7.15;98.96
51849;BME280;38952;51.090;-1.832;2023-02-02T07:05:36;101540.41;;;7.03;98.82
51849;BME280;38952;51.090;-1.832;2023-02-02T07:11:29;101524.31;;;6.88;99.58
51849;BME280;38952;51.090;-1.832;2023-02-02T07:14:02;101552.75;;;6.98;100.00
51849;BME280;38952;51.090;-1.832;2023-02-02T07:16:35;101542.56;;;6.80;100.00
51849;BME280;38952;51.090;-1.832;2023-02-02T07:22:04;101551.78;;;6.59;100.00
51849;BME280;38952;51.090;-1.832;2023-02-02T07:24:33;101555.75;;;6.57;100.00
51849;BME280;38952;51.090;-1.832;2023-02-02T07:26:59;101550.53;;;6.55;100.00
51849;BME280;38952;51.090;-1.832;2023-02-02T07:29:24;101534.25;;;6.42;100.00
51849;BME280;38952;51.090;-1.832;2023-02-02T07:32:07;101561.84;;;6.52;100.00
51849;BME280;38952;51.090;-1.832;2023-02-02T07:34:43;101557.69;;;6.43;100.00
51849;BME280;38952;51.090;-1.832;2023-02-02T07:37:11;101529.69;;;6.22;100.00
51849;BME280;38952;51.090;-1.832;2023-02-02T07:39:44;101544.53;;;6.26;100.00
51849;BME280;38952;51.090;-1.832;2023-02-02T07:42:11;101571.66;;;6.46;100.00
51849;BME280;38952;51.090;-1.832;2023-02-02T07:44:36;101581.06;;;6.51;100.00
51849;BME280;38952;51.090;-1.832;2023-02-02T07:47:02;101554.97;;;6.36;100.00
51849;BME280;38952;51.090;-1.832;2023-02-02T07:49:30;101584.44;;;6.53;100.00
51849;BME280;38952;51.090;-1.832;2023-02-02T07:52:00;101567.69;;;6.42;100.00
51849;BME280;38952;51.090;-1.832;2023-02-02T07:54:37;101553.91;;;6.37;100.00
51849;BME280;38952;51.090;-1.832;2023-02-02T07:57:15;101558.94;;;6.40;100.00
51849;BME280;38952;51.090;-1.832;2023-02-02T07:59:59;101561.22;;;6.43;100.00
51849;BME280;38952;51.090;-1.832;2023-02-02T08:02:24;101555.19;;;6.41;100.00
51849;BME280;38952;51.090;-1.832;2023-02-02T08:04:50;101549.31;;;6.44;100.00
51849;BME280;38952;51.090;-1.832;2023-02-02T08:07:16;101567.72;;;6.56;100.00
51849;BME280;38952;51.090;-1.832;2023-02-02T08:09:51;101539.50;;;6.43;100.00
51849;BME280;38952;51.090;-1.832;2023-02-02T08:12:18;101557.44;;;6.58;100.00
51849;BME280;38952;51.090;-1.832;2023-02-02T08:14:43;101555.16;;;6.55;100.00
51849;BME280;38952;51.090;-1.832;2023-02-02T08:17:19;101560.16;;;6.58;100.00
51849;BME280;38952;51.090;-1.832;2023-02-02T08:19:55;101549.72;;;6.61;100.00
51849;BME280;38952;51.090;-1.832;2023-02-02T08:22:50;101547.63;;;6.63;100.00
51849;BME280;38952;51.090;-1.832;2023-02-02T08:25:17;101565.75;;;6.83;100.00
51849;BME280;38952;51.090;-1.832;2023-02-02T08:27:43;101563.88;;;6.84;100.00
51849;BME280;38952;51.090;-1.832;2023-02-02T08:30:09;101588.91;;;7.06;100.00
51849;BME280;38952;51.090;-1.832;2023-02-02T08:32:34;101545.06;;;6.82;100.00
51849;BME280;38952;51.090;-1.832;2023-02-02T08:35:22;101584.31;;;7.06;100.00
51849;BME280;38952;51.090;-1.832;2023-02-02T08:37:48;101566.75;;;7.02;100.00
51849;BME280;38952;51.090;-1.832;2023-02-02T08:54:26;101574.47;;;7.57;100.00
51849;BME280;38952;51.090;-1.832;2023-02-02T09:05:05;101603.81;;;8.19;100.00
51849;BME280;38952;51.090;-1.832;2023-02-02T09:07:41;101578.91;;;8.15;100.00
51849;BME280;38952;51.090;-1.832;2023-02-02T09:10:16;101592.97;;;8.63;100.00
51849;BME280;38952;51.090;-1.832;2023-02-02T09:12:55;101574.84;;;9.12;100.00
51849;BME280;38952;51.090;-1.832;2023-02-02T09:15:20;101611.31;;;10.39;100.00
51849;BME280;38952;51.090;-1.832;2023-02-02T09:17:46;101588.13;;;11.70;92.40
51849;BME280;38952;51.090;-1.832;2023-02-02T09:20:12;101597.47;;;13.05;84.40
51849;BME280;38952;51.090;-1.832;2023-02-02T09:23:11;101601.44;;;13.15;78.66
51849;BME280;38952;51.090;-1.832;2023-02-02T09:25:43;101625.09;;;13.60;76.94
51849;BME280;38952;51.090;-1.832;2023-02-02T09:28:11;101600.94;;;13.18;75.88
51849;BME280;38952;51.090;-1.832;2023-02-02T09:31:10;101602.41;;;12.47;78.18
51849;BME280;38952;51.090;-1.832;2023-02-02T09:33:40;101606.44;;;11.82;80.37
51849;BME280;38952;51.090;-1.832;2023-02-02T09:36:10;101600.69;;;11.14;83.05
51849;BME280;38952;51.090;-1.832;2023-02-02T09:38:39;101638.91;;;10.61;85.20
51849;BME280;38952;51.090;-1.832;2023-02-02T09:44:03;101659.91;;;9.95;89.60
51849;BME280;38952;51.090;-1.832;2023-02-02T09:49:11;101624.59;;;9.63;91.15
51849;BME280;38952;51.090;-1.832;2023-02-02T09:51:55;101619.69;;;9.53;91.39
51849;BME280;38952;51.090;-1.832;2023-02-02T09:54:38;101623.56;;;9.46;92.71
51849;BME280;38952;51.090;-1.832;2023-02-02T09:57:16;101630.16;;;9.56;93.43
51849;BME280;38952;51.090;-1.832;2023-02-02T09:59:50;101622.09;;;9.61;91.83
51849;BME280;38952;51.090;-1.832;2023-02-02T10:02:38;101644.97;;;9.79;91.92
51849;BME280;38952;51.090;-1.832;2023-02-02T10:05:20;101657.25;;;9.88;91.91
51849;BME280;38952;51.090;-1.832;2023-02-02T10:08:04;101648.16;;;9.94;91.47
51849;BME280;38952;51.090;-1.832;2023-02-02T10:10:36;101652.78;;;10.06;91.25
51849;BME280;38952;51.090;-1.832;2023-02-02T10:13:18;101649.78;;;9.95;90.14
51849;BME280;38952;51.090;-1.832;2023-02-02T10:16:06;101670.44;;;9.91;90.79
51849;BME280;38952;51.090;-1.832;2023-02-02T10:21:52;101634.09;;;9.60;92.25
51849;BME280;38952;51.090;-1.832;2023-02-02T10:24:36;101650.06;;;10.06;91.50
51849;BME280;38952;51.090;-1.832;2023-02-02T10:27:22;101641.53;;;10.56;90.00
51849;BME280;38952;51.090;-1.832;2023-02-02T10:33:02;101666.34;;;13.04;77.34
51849;BME280;38952;51.090;-1.832;2023-02-02T10:35:34;101678.09;;;12.48;77.66
51849;BME280;38952;51.090;-1.832;2023-02-02T10:41:04;101646.16;;;11.15;81.08
51849;BME280;38952;51.090;-1.832;2023-02-02T10:46:50;101669.53;;;11.06;84.35
51849;BME280;38952;51.090;-1.832;2023-02-02T10:49:28;101654.28;;;10.86;84.41
51849;BME280;38952;51.090;-1.832;2023-02-02T10:57:29;101650.94;;;10.60;84.92
51849;BME280;38952;51.090;-1.832;2023-02-02T11:00:09;101691.03;;;10.90;85.25
51849;BME280;38952;51.090;-1.832;2023-02-02T11:02:39;101669.53;;;11.06;85.04
51849;BME280;38952;51.090;-1.832;2023-02-02T11:05:33;101674.63;;;11.02;84.61
51849;BME280;38952;51.090;-1.832;2023-02-02T11:08:24;101677.13;;;11.04;84.03
51849;BME280;38952;51.090;-1.832;2023-02-02T11:11:23;101688.69;;;11.06;84.59
51849;BME280;38952;51.090;-1.832;2023-02-02T11:14:08;101686.44;;;11.03;84.44
51849;BME280;38952;51.090;-1.832;2023-02-02T11:16:42;101672.00;;;11.19;84.39
51849;BME280;38952;51.090;-1.832;2023-02-02T11:21:45;101662.28;;;11.52;81.80
51849;BME280;38952;51.090;-1.832;2023-02-02T11:24:20;101628.25;;;11.48;81.60
51849;BME280;38952;51.090;-1.832;2023-02-02T11:27:38;101655.28;;;11.85;81.89
51849;BME280;38952;51.090;-1.832;2023-02-02T11:32:51;101649.22;;;11.42;80.55
51849;BME280;38952;51.090;-1.832;2023-02-02T11:35:21;101654.94;;;11.41;81.32
51849;BME280;38952;51.090;-1.832;2023-02-02T11:38:14;101659.72;;;11.33;81.13
51849;BME280;38952;51.090;-1.832;2023-02-02T11:46:00;101651.16;;;11.18;81.72
51849;BME280;38952;51.090;-1.832;2023-02-02T11:48:37;101637.97;;;11.15;82.17
51849;BME280;38952;51.090;-1.832;2023-02-02T11:51:07;101662.00;;;11.25;81.88
51849;BME280;38952;51.090;-1.832;2023-02-02T11:53:36;101646.16;;;11.15;79.99
51849;BME280;38952;51.090;-1.832;2023-02-02T11:56:08;101644.50;;;11.14;80.64
51849;BME280;38952;51.090;-1.832;2023-02-02T11:58:49;101616.53;;;11.12;81.34
51849;BME280;38952;51.090;-1.832;2023-02-02T12:01:36;101607.28;;;11.42;79.93
51849;BME280;38952;51.090;-1.832;2023-02-02T12:06:42;101620.72;;;11.84;78.95
51849;BME280;38952;51.090;-1.832;2023-02-02T12:09:18;101617.13;;;11.95;78.27
51849;BME280;38952;51.090;-1.832;2023-02-02T12:17:45;101608.47;;;11.46;79.16
51849;BME280;38952;51.090;-1.832;2023-02-02T12:40:39;101595.09;;;11.61;81.05
51849;BME280;38952;51.090;-1.832;2023-02-02T12:49:00;101600.16;;;12.83;75.58
51849;BME280;38952;51.090;-1.832;2023-02-02T12:51:44;101601.03;;;13.72;72.50
51849;BME280;38952;51.090;-1.832;2023-02-02T13:02:49;101588.28;;;13.61;70.25
51849;BME280;38952;51.090;-1.832;2023-02-02T13:08:53;101541.38;;;12.23;73.17
51849;BME280;38952;51.090;-1.832;2023-02-02T13:11:38;101558.16;;;12.10;74.74
51849;BME280;38952;51.090;-1.832;2023-02-02T13:23:14;101561.16;;;11.79;77.35
51849;BME280;38952;51.090;-1.832;2023-02-02T13:29:06;101562.53;;;11.65;77.62
51849;BME280;38952;51.090;-1.832;2023-02-02T14:00:26;101546.50;;;12.70;74.87
51849;BME280;38952;51.090;-1.832;2023-02-02T14:03:03;101543.16;;;12.68;74.56
51849;BME280;38952;51.090;-1.832;2023-02-02T14:05:39;101553.47;;;13.00;74.11
51849;BME280;38952;51.090;-1.832;2023-02-02T14:08:13;101537.56;;;13.02;72.56
51849;BME280;38952;51.090;-1.832;2023-02-02T14:13:27;101556.84;;;13.52;70.11
51849;BME280;38952;51.090;-1.832;2023-02-02T14:16:19;101558.44;;;13.48;70.67
51849;BME280;38952;51.090;-1.832;2023-02-02T14:26:48;101555.00;;;12.01;74.28
51849;BME280;38952;51.090;-1.832;2023-02-02T14:34:38;101545.41;;;11.41;77.78
51849;BME280;38952;51.090;-1.832;2023-02-02T14:39:45;101564.16;;;11.49;77.72
51849;BME280;38952;51.090;-1.832;2023-02-02T14:47:53;101568.41;;;11.28;79.35
51849;BME280;38952;51.090;-1.832;2023-02-02T14:50:31;101578.06;;;11.30;78.94
51849;BME280;38952;51.090;-1.832;2023-02-02T14:59:28;101595.25;;;10.90;81.28
51849;BME280;38952;51.090;-1.832;2023-02-02T15:02:01;101583.16;;;10.62;82.40
51849;BME280;38952;51.090;-1.832;2023-02-02T15:04:28;101589.34;;;10.46;83.37
51849;BME280;38952;51.090;-1.832;2023-02-02T15:09:56;101564.31;;;10.19;84.83
51849;BME280;38952;51.090;-1.832;2023-02-02T15:12:52;101569.19;;;10.28;85.00
51849;BME280;38952;51.090;-1.832;2023-02-02T15:15:30;101577.78;;;10.44;84.43
51849;BME280;38952;51.090;-1.832;2023-02-02T15:18:01;101575.75;;;10.51;83.75
51849;BME280;38952;51.090;-1.832;2023-02-02T15:25:59;101591.59;;;10.49;83.91
51849;BME280;38952;51.090;-1.832;2023-02-02T15:28:57;101600.03;;;10.47;83.59
51849;BME280;38952;51.090;-1.832;2023-02-02T15:33:54;101595.13;;;10.38;83.20
51849;BME280;38952;51.090;-1.832;2023-02-02T15:36:26;101597.63;;;10.39;82.99
51849;BME280;38952;51.090;-1.832;2023-02-02T15:38:56;101606.56;;;10.35;82.32
51849;BME280;38952;51.090;-1.832;2023-02-02T15:41:26;101594.84;;;10.27;82.57
51849;BME280;38952;51.090;-1.832;2023-02-02T15:43:56;101593.06;;;10.21;82.81
51849;BME280;38952;51.090;-1.832;2023-02-02T15:46:31;101602.47;;;10.13;82.97
51849;BME280;38952;51.090;-1.832;2023-02-02T15:51:45;101598.88;;;10.13;84.49
51849;BME280;38952;51.090;-1.832;2023-02-02T15:54:37;101596.34;;;10.00;84.45
51849;BME280;38952;51.090;-1.832;2023-02-02T15:59:49;101607.75;;;9.96;85.17
51849;BME280;38952;51.090;-1.832;2023-02-02T16:02:36;101619.97;;;9.94;85.48
51849;BME280;38952;51.090;-1.832;2023-02-02T16:08:05;101596.88;;;9.78;86.40
51849;BME280;38952;51.090;-1.832;2023-02-02T16:10:33;101603.03;;;9.73;86.68
51849;BME280;38952;51.090;-1.832;2023-02-02T16:12:59;101593.63;;;9.69;87.41
51849;BME280;38952;51.090;-1.832;2023-02-02T16:15:28;101595.63;;;9.62;87.80
51849;BME280;38952;51.090;-1.832;2023-02-02T16:18:04;101598.56;;;9.60;87.97
51849;BME280;38952;51.090;-1.832;2023-02-02T16:20:33;101613.78;;;9.56;89.27
51849;BME280;38952;51.090;-1.832;2023-02-02T16:23:01;101620.28;;;9.55;89.61
51849;BME280;38952;51.090;-1.832;2023-02-02T16:25:32;101600.16;;;9.38;90.04
51849;BME280;38952;51.090;-1.832;2023-02-02T16:28:09;101616.06;;;9.41;89.90
51849;BME280;38952;51.090;-1.832;2023-02-02T16:30:37;101610.59;;;9.41;89.91
51849;BME280;38952;51.090;-1.832;2023-02-02T16:33:39;101621.88;;;9.44;90.87
51849;BME280;38952;51.090;-1.832;2023-02-02T16:36:20;101612.34;;;9.35;91.33
51849;BME280;38952;51.090;-1.832;2023-02-02T16:38:47;101622.69;;;9.33;92.83
51849;BME280;38952;51.090;-1.832;2023-02-02T16:41:34;101625.47;;;9.26;92.99
51849;BME280;38952;51.090;-1.832;2023-02-02T16:47:29;101628.38;;;9.32;92.98
51849;BME280;38952;51.090;-1.832;2023-02-02T16:52:57;101608.19;;;9.33;93.27
51849;BME280;38952;51.090;-1.832;2023-02-02T16:55:25;101613.78;;;9.38;93.00
51849;BME280;38952;51.090;-1.832;2023-02-02T16:57:53;101597.13;;;9.28;92.44
51849;BME280;38952;51.090;-1.832;2023-02-02T17:00:29;101594.84;;;9.24;92.58
51849;BME280;38952;51.090;-1.832;2023-02-02T17:03:06;101606.81;;;9.23;93.04
51849;BME280;38952;51.090;-1.832;2023-02-02T17:05:55;101596.13;;;9.03;93.47
51849;BME280;38952;51.090;-1.832;2023-02-02T17:08:40;101575.91;;;8.93;94.09
51849;BME280;38952;51.090;-1.832;2023-02-02T17:11:19;101598.94;;;8.97;94.37
51849;BME280;38952;51.090;-1.832;2023-02-02T17:13:55;101591.00;;;8.95;94.86
51849;BME280;38952;51.090;-1.832;2023-02-02T17:16:23;101588.56;;;8.87;94.34
51849;BME280;38952;51.090;-1.832;2023-02-02T17:18:51;101599.00;;;8.90;95.09
51849;BME280;38952;51.090;-1.832;2023-02-02T17:21:19;101587.72;;;8.86;95.05
51849;BME280;38952;51.090;-1.832;2023-02-02T17:23:45;101618.13;;;9.08;95.29
51849;BME280;38952;51.090;-1.832;2023-02-02T17:26:19;101620.63;;;9.10;95.39
51849;BME280;38952;51.090;-1.832;2023-02-02T17:28:54;101616.22;;;9.09;94.42
51849;BME280;38952;51.090;-1.832;2023-02-02T17:31:20;101616.44;;;9.07;94.82
51849;BME280;38952;51.090;-1.832;2023-02-02T17:33:45;101618.94;;;9.09;94.44
51849;BME280;38952;51.090;-1.832;2023-02-02T17:36:11;101623.13;;;9.12;94.11